createdAt,value
2018-05-16T00:00:48.136Z,8.17
2018-05-16T00:04:50.655Z,9.00
2018-05-16T00:08:53.957Z,8.03
2018-05-16T00:12:57.256Z,7.97
2018-05-16T00:17:00.562Z,8.30
2018-05-16T00:21:03.864Z,7.90
2018-05-16T00:25:07.148Z,8.10
2018-05-16T00:29:09.681Z,7.50
2018-05-16T00:33:12.261Z,6.77
2018-05-16T00:37:14.804Z,6.13
2018-05-16T00:41:17.346Z,5.40
2018-05-16T00:45:19.852Z,5.97
2018-05-16T00:49:22.401Z,7.27
2018-05-16T00:53:24.941Z,7.57
2018-05-16T00:57:28.270Z,8.13
2018-05-16T01:01:31.598Z,9.00
2018-05-16T01:05:34.118Z,7.37
2018-05-16T01:09:36.794Z,4.80
2018-05-16T01:13:39.346Z,6.53
2018-05-16T01:17:41.879Z,6.93
2018-05-16T01:21:44.411Z,7.60
2018-05-16T01:25:47.679Z,8.13
2018-05-16T01:29:50.216Z,9.23
2018-05-16T01:33:52.747Z,9.10
2018-05-16T01:37:55.271Z,8.20
2018-05-16T01:41:57.801Z,5.87
2018-05-16T01:46:00.312Z,4.70
2018-05-16T01:50:02.857Z,5.57
2018-05-16T01:54:05.406Z,7.40
2018-05-16T01:58:08.747Z,8.70
2018-05-16T02:02:11.283Z,9.10
2018-05-16T02:06:14.569Z,8.00
2018-05-16T02:10:17.100Z,8.77
2018-05-16T02:14:19.622Z,8.93
2018-05-16T02:18:22.234Z,9.40
2018-05-16T02:22:24.725Z,8.43
2018-05-16T02:26:27.995Z,6.57
2018-05-16T02:30:30.528Z,7.33
2018-05-16T02:34:33.069Z,8.90
2018-05-16T02:38:35.599Z,7.90
2018-05-16T02:42:38.145Z,12.93
2018-05-16T02:46:40.699Z,12.53
2018-05-16T02:50:43.230Z,12.03
2018-05-16T02:54:46.532Z,10.70
2018-05-16T02:58:49.067Z,9.40
2018-05-16T03:02:52.437Z,6.00
2018-05-16T03:06:54.920Z,8.27
2018-05-16T03:10:58.196Z,7.43
2018-05-16T03:15:00.731Z,9.17
2018-05-16T03:19:03.263Z,8.90
2018-05-16T03:23:05.795Z,10.27
2018-05-16T03:27:08.338Z,10.77
2018-05-16T03:31:10.856Z,9.43
2018-05-16T03:35:13.390Z,7.27
2018-05-16T03:39:15.933Z,8.93
2018-05-16T03:43:18.479Z,11.27
2018-05-16T03:47:21.029Z,10.60
2018-05-16T03:51:23.563Z,12.43
2018-05-16T03:55:26.859Z,11.23
2018-05-16T03:59:42.072Z,12.53
2018-05-16T04:03:56.452Z,13.77
2018-05-16T04:07:58.996Z,13.27
2018-05-16T04:12:02.284Z,15.63
2018-05-16T04:16:04.824Z,12.70
2018-05-16T04:20:07.372Z,12.63
2018-05-16T04:24:10.673Z,13.40
2018-05-16T04:28:13.984Z,11.63
2018-05-16T04:32:17.262Z,12.20
2018-05-16T04:36:19.805Z,11.00
2018-05-16T04:40:22.339Z,11.23
2018-05-16T04:44:25.932Z,11.43
2018-05-16T04:48:28.540Z,10.57
2018-05-16T04:52:31.845Z,10.87
2018-05-16T04:56:35.145Z,11.63
2018-05-16T05:00:38.454Z,12.47
2018-05-16T05:04:41.756Z,14.47
2018-05-16T05:08:45.055Z,14.43
2018-05-16T05:12:48.359Z,15.20
2018-05-16T05:16:51.657Z,14.33
2018-05-16T05:20:54.968Z,16.83
2018-05-16T05:24:58.272Z,16.90
2018-05-16T05:29:01.569Z,17.43
2018-05-16T05:33:04.103Z,17.47
2018-05-16T05:37:06.617Z,17.23
2018-05-16T05:41:09.183Z,17.57
2018-05-16T05:45:11.713Z,17.83
2018-05-16T05:49:15.100Z,19.73
2018-05-16T05:53:17.565Z,20.37
2018-05-16T05:57:20.080Z,21.10
2018-05-16T06:01:23.384Z,23.33
2018-05-16T06:05:26.708Z,21.30
2018-05-16T06:09:29.263Z,23.70
2018-05-16T06:13:32.568Z,24.67
2018-05-16T06:17:35.858Z,25.07
2018-05-16T06:21:38.396Z,25.43
2018-05-16T06:25:40.936Z,22.90
2018-05-16T06:29:44.247Z,23.23
2018-05-16T06:33:47.711Z,24.20
2018-05-16T06:37:50.253Z,22.40
2018-05-16T06:41:52.802Z,24.20
2018-05-16T06:45:55.368Z,21.53
2018-05-16T06:49:57.931Z,22.90
2018-05-16T06:54:00.500Z,21.43
2018-05-16T06:58:04.193Z,22.20
2018-05-16T07:02:07.503Z,25.03
2018-05-16T07:06:10.812Z,24.00
2018-05-16T07:10:13.364Z,25.33
2018-05-16T07:14:15.916Z,22.83
2018-05-16T07:18:18.471Z,24.93
2018-05-16T07:22:21.013Z,23.97
2018-05-16T07:26:23.551Z,23.67
2018-05-16T07:30:26.105Z,24.40
2018-05-16T07:34:29.437Z,23.77
2018-05-16T07:38:31.985Z,24.87
2018-05-16T07:42:34.519Z,24.90
2018-05-16T07:46:37.064Z,24.60
2018-05-16T07:50:40.397Z,25.03
2018-05-16T07:54:42.952Z,22.77
2018-05-16T07:58:46.256Z,19.10
2018-05-16T08:02:49.544Z,19.83
2018-05-16T08:06:52.075Z,19.20
2018-05-16T08:10:54.615Z,19.50
2018-05-16T08:14:57.147Z,18.27
2018-05-16T08:18:59.690Z,17.40
2018-05-16T08:23:02.226Z,18.00
2018-05-16T08:27:04.759Z,17.80
2018-05-16T08:31:07.409Z,17.23
2018-05-16T08:35:09.883Z,17.03
2018-05-16T08:39:12.428Z,17.43
2018-05-16T08:43:15.715Z,17.40
2018-05-16T08:47:18.256Z,15.87
2018-05-16T08:51:20.803Z,14.73
2018-05-16T08:55:24.107Z,17.17
2018-05-16T08:59:26.651Z,16.33
2018-05-16T09:03:29.172Z,16.10
2018-05-16T09:07:32.479Z,16.33
2018-05-16T09:11:35.016Z,14.27
2018-05-16T09:15:37.619Z,14.63
2018-05-16T09:19:40.168Z,13.40
2018-05-16T09:23:42.690Z,14.40
2018-05-16T09:27:45.228Z,14.77
2018-05-16T09:31:47.769Z,13.97
2018-05-16T09:35:50.303Z,14.63
2018-05-16T09:39:52.842Z,14.20
2018-05-16T09:43:55.368Z,14.33
2018-05-16T09:47:57.908Z,15.87
2018-05-16T09:52:00.443Z,15.37
2018-05-16T09:56:02.984Z,15.73
2018-05-16T10:00:06.291Z,15.50
2018-05-16T10:04:09.601Z,14.90
2018-05-16T10:08:12.135Z,14.87
2018-05-16T10:12:14.675Z,15.23
2018-05-16T10:16:17.971Z,14.67
2018-05-16T10:20:21.324Z,14.43
2018-05-16T10:24:23.863Z,15.30
2018-05-16T10:28:27.148Z,17.13
2018-05-16T10:32:29.716Z,14.83
2018-05-16T10:36:32.264Z,15.40
2018-05-16T10:40:34.809Z,15.00
2018-05-16T10:44:38.119Z,14.73
2018-05-16T10:48:41.400Z,15.00
2018-05-16T10:52:43.949Z,13.67
2018-05-16T10:56:46.480Z,14.30
2018-05-16T11:00:49.024Z,14.67
2018-05-16T11:04:51.572Z,14.33
2018-05-16T11:08:54.860Z,13.43
2018-05-16T11:12:58.164Z,13.97
2018-05-16T11:17:05.275Z,13.77
2018-05-16T11:21:07.809Z,13.20
2018-05-16T11:25:10.349Z,14.20
2018-05-16T11:29:12.868Z,15.50
2018-05-16T11:33:15.404Z,16.10
2018-05-16T11:37:18.721Z,16.20
2018-05-16T11:41:21.457Z,16.83
2018-05-16T11:45:24.056Z,16.60
2018-05-16T11:49:26.588Z,17.10
2018-05-16T11:53:29.131Z,17.40
2018-05-16T11:57:31.684Z,17.37
2018-05-16T12:01:34.231Z,17.70
2018-05-16T12:05:36.773Z,17.23
2018-05-16T12:09:39.305Z,18.17
2018-05-16T12:13:41.861Z,17.33
2018-05-16T12:17:44.410Z,17.93
2018-05-16T12:21:47.028Z,18.37
2018-05-16T12:25:49.531Z,17.67
2018-05-16T12:29:52.082Z,18.10
2018-05-16T12:33:54.630Z,17.30
2018-05-16T12:37:57.175Z,18.47
2018-05-16T12:42:00.492Z,17.67
2018-05-16T12:46:03.045Z,17.53
2018-05-16T12:50:05.588Z,17.33
2018-05-16T12:54:08.119Z,16.80
2018-05-16T12:58:10.664Z,17.43
2018-05-16T13:02:13.207Z,16.50
2018-05-16T13:06:16.527Z,15.67
2018-05-16T13:10:19.073Z,16.37
2018-05-16T13:14:21.658Z,14.90
2018-05-16T13:18:24.176Z,14.97
2018-05-16T13:22:26.720Z,15.13
2018-05-16T13:26:29.276Z,14.37
2018-05-16T13:30:31.883Z,14.17
2018-05-16T13:34:34.417Z,14.70
2018-05-16T13:38:36.984Z,14.00
2018-05-16T13:42:40.369Z,13.70
2018-05-16T13:46:42.928Z,14.23
2018-05-16T13:50:45.629Z,14.13
2018-05-16T13:54:48.351Z,13.57
2018-05-16T13:58:51.044Z,13.83
2018-05-16T14:02:54.952Z,13.70
2018-05-16T14:06:59.589Z,13.53
2018-05-16T14:11:02.309Z,13.60
2018-05-16T14:15:06.000Z,13.60
2018-05-16T14:19:08.674Z,13.27
2018-05-16T14:23:12.015Z,12.87
2018-05-16T14:27:14.559Z,13.53
2018-05-16T14:31:17.114Z,12.50
2018-05-16T14:35:19.639Z,12.80
2018-05-16T14:39:22.951Z,14.47
2018-05-16T14:43:26.265Z,14.73
2018-05-16T14:47:32.713Z,14.30
2018-05-16T14:51:35.252Z,15.27
2018-05-16T14:55:37.772Z,15.97
2018-05-16T14:59:40.332Z,15.13
2018-05-16T15:03:42.896Z,16.50
2018-05-16T15:07:45.438Z,17.43
2018-05-16T15:11:47.980Z,16.77
2018-05-16T15:15:50.519Z,18.00
2018-05-16T15:19:54.566Z,17.60
2018-05-16T15:23:57.107Z,16.53
2018-05-16T15:27:59.656Z,17.80
2018-05-16T15:32:02.205Z,16.70
2018-05-16T15:36:04.748Z,15.57
2018-05-16T15:40:07.281Z,15.47
2018-05-16T15:44:10.040Z,13.93
2018-05-16T15:48:12.594Z,13.23
2018-05-16T15:52:15.137Z,13.63
2018-05-16T15:56:18.444Z,12.87
2018-05-16T16:00:20.977Z,12.83
2018-05-16T16:04:23.524Z,11.53
2018-05-16T16:08:26.084Z,9.37
2018-05-16T16:12:29.388Z,8.40
2018-05-16T16:16:32.838Z,8.57
2018-05-16T16:20:36.191Z,7.70
2018-05-16T16:24:38.728Z,7.70
2018-05-16T16:28:41.264Z,7.50
2018-05-16T16:32:44.568Z,7.73
2018-05-16T16:36:47.868Z,8.20
2018-05-16T16:40:51.182Z,7.80
2018-05-16T16:44:54.543Z,8.13
2018-05-16T16:48:57.048Z,7.43
2018-05-16T16:52:59.584Z,7.07
2018-05-16T16:57:02.154Z,7.90
2018-05-16T17:01:04.679Z,7.63
2018-05-16T17:05:07.224Z,8.33
2018-05-16T17:09:09.766Z,8.30
2018-05-16T17:13:13.032Z,8.33
2018-05-16T17:17:16.343Z,8.83
2018-05-16T17:21:18.856Z,9.07
2018-05-16T17:25:21.384Z,8.90
2018-05-16T17:29:25.707Z,8.90
2018-05-16T17:33:28.231Z,9.77
2018-05-16T17:37:30.772Z,10.63
2018-05-16T17:41:34.083Z,10.23
2018-05-16T17:45:36.600Z,10.50
2018-05-16T17:49:39.139Z,10.50
2018-05-16T17:53:42.518Z,10.67
2018-05-16T17:57:45.004Z,10.63
2018-05-16T18:01:47.521Z,10.33
2018-05-16T18:05:50.059Z,10.37
2018-05-16T18:09:52.596Z,9.93
2018-05-16T18:14:07.111Z,10.77
2018-05-16T18:18:09.644Z,9.77
2018-05-16T18:22:12.199Z,9.17
2018-05-16T18:26:14.716Z,10.23
2018-05-16T18:30:17.267Z,10.13
2018-05-16T18:34:19.841Z,10.00
2018-05-16T18:38:22.356Z,10.40
2018-05-16T18:42:25.645Z,8.90
2018-05-16T18:46:28.951Z,9.13
2018-05-16T18:50:32.261Z,8.83
2018-05-16T18:54:35.573Z,9.13
2018-05-16T18:58:38.118Z,9.17
2018-05-16T19:02:40.659Z,8.53
2018-05-16T19:06:43.175Z,8.17
2018-05-16T19:10:45.709Z,8.43
2018-05-16T19:14:49.017Z,7.93
2018-05-16T19:18:51.562Z,7.67
2018-05-16T19:22:54.096Z,8.00
2018-05-16T19:26:56.610Z,9.30
2018-05-16T19:30:59.148Z,7.77
2018-05-16T19:35:02.467Z,8.37
2018-05-16T19:39:05.045Z,8.97
2018-05-16T19:43:08.409Z,8.13
2018-05-16T19:47:10.920Z,8.60
2018-05-16T19:51:14.226Z,8.63
2018-05-16T19:55:17.532Z,8.87
2018-05-16T19:59:20.835Z,9.33
2018-05-16T20:03:24.173Z,8.10
2018-05-16T20:07:26.697Z,8.80
2018-05-16T20:11:29.228Z,8.50
2018-05-16T20:15:31.846Z,8.17
2018-05-16T20:19:34.343Z,8.80
2018-05-16T20:23:36.905Z,8.20
2018-05-16T20:27:39.419Z,8.20
2018-05-16T20:31:41.953Z,8.43
2018-05-16T20:35:44.498Z,7.00
2018-05-16T20:39:47.116Z,7.97
2018-05-16T20:43:49.604Z,8.17
2018-05-16T20:47:52.704Z,7.00
2018-05-16T20:51:56.984Z,7.10
2018-05-16T20:55:59.521Z,7.60
2018-05-16T21:00:02.124Z,7.00
2018-05-16T21:04:04.669Z,6.83
2018-05-16T21:08:07.947Z,8.03
2018-05-16T21:12:11.272Z,7.73
2018-05-16T21:16:14.575Z,7.07
2018-05-16T21:20:17.906Z,6.93
2018-05-16T21:24:20.445Z,7.07
2018-05-16T21:28:22.970Z,9.40
2018-05-16T21:32:25.505Z,7.93
2018-05-16T21:36:28.052Z,6.83
2018-05-16T21:40:30.598Z,6.40
2018-05-16T21:44:33.907Z,7.33
2018-05-16T21:48:37.210Z,6.57
2018-05-16T21:52:40.516Z,7.00
2018-05-16T21:56:43.081Z,7.30
2018-05-16T22:00:45.596Z,6.53
2018-05-16T22:04:48.128Z,7.20
2018-05-16T22:08:50.670Z,7.00
2018-05-16T22:12:53.999Z,6.70
2018-05-16T22:16:56.528Z,6.20
2018-05-16T22:21:00.028Z,6.00
2018-05-16T22:25:02.563Z,7.10
2018-05-16T22:29:05.095Z,6.67
2018-05-16T22:33:13.395Z,6.40
2018-05-16T22:37:21.688Z,7.67
2018-05-16T22:41:29.827Z,6.43
2018-05-16T22:45:36.271Z,6.80
2018-05-16T22:49:38.804Z,6.60
2018-05-16T22:53:41.340Z,6.33
2018-05-16T22:57:43.882Z,6.20
2018-05-16T23:01:46.539Z,6.33
2018-05-16T23:05:49.667Z,6.40
2018-05-16T23:09:52.195Z,6.37
2018-05-16T23:13:54.723Z,6.00
2018-05-16T23:17:57.252Z,6.57
2018-05-16T23:21:59.787Z,6.53
2018-05-16T23:26:02.327Z,6.37
2018-05-16T23:30:04.869Z,5.40
2018-05-16T23:34:07.378Z,5.97
2018-05-16T23:38:09.907Z,6.63
2018-05-16T23:42:12.463Z,6.57
2018-05-16T23:46:14.995Z,6.60
2018-05-16T23:50:17.536Z,6.60
2018-05-16T23:54:20.048Z,5.90
2018-05-16T23:58:22.583Z,6.20
